Price, UT

12:47 PM MST on February 27, 2017 (GMT -0700)
Wellington Utah | | Change Station
Active Advisory: Winter Weather Advisory

Elev 5417 ft 39.54 °N, 110.73 °W | Updated 4 seconds ago

Mostly Cloudy
Mostly Cloudy
47.7 °F
Feels Like 47 °F
N
3.4
Wind Variable Wind from South
Gusts 4.9 mph

Today
High -- | Low -- °F
--% Chance of Precip.
Yesterday
High -- | Low -- °F
Precip. -- in
Pressure 29.69 in
Visibility 10.0 miles
Clouds Mostly Cloudy 6000 ft
Mostly Cloudy 8500 ft
Windchill 47 °F
Dew Point 21 °F
Humidity 35%
Rainfall 0.00 in
Snow Depth Not available.
6:58 AM 6:13 PM
New Moon, 2% visible
METAR KPUC 271853Z AUTO 16006KT 10SM BKN060 BKN085 03/M03 A2962 RMK AO2 SLP053 T00331028
Pressure 29.69 in
Visibility 10.0 miles
Clouds Mostly Cloudy 6000 ft
Mostly Cloudy 8500 ft
Windchill 47 °F
Dew Point 21 °F
Humidity 35%
Rainfall 0.00 in
Snow Depth Not available.
6:58 AM 6:13 PM
New Moon, 2% visible
METAR KPUC 271853Z AUTO 16006KT 10SM BKN060 BKN085 03/M03 A2962 RMK AO2 SLP053 T00331028

Get Your Daily Forecast Email!

Thanks for signing up!

Be on the lookout for a verification email in your inbox.

You'll start receiving the daily forecast at 8 AM.

×

10-Day Weather Forecast

Almanac

Astronomy

Feb. 27, 2017 Rise Set
Actual Time
Civil Twilight
Nautical Twilight
Astronomical Twilight
Moon
Length of Visible Light
Length of Day
Tomorrow will be .
, % of the Moon is Illuminated

Today's Extremes

State Highs State Lows

Community

WunderPhotos

Upload Photos

1,962,540 photos uploaded!

WunderBlog® & News

Nearby

Air Quality

  Air Quality AQ Index Pollutant
Not available.

Snow Depth

Station Depth Elevation

Earthquake Activity

City Distance Mag. Time & Date
Minimum magnitude displayed is 2.5.

Coastal Water Temperatures

Place Temperature

Stations

Nearby Weather Stations

Station Location Temp. Windchill Dew Point Humidity Wind Precip. Elev Updated Type
                   

Watches & Warnings

Winter Weather Advisory
Issued: 8:23 AM MST Feb. 27, 2017 – National Weather Service

... Winter Weather Advisory remains in effect until 4 am MST
Tuesday...

* affected area... the western Uinta Basin and Castle country.

* Snow accumulations... generally 1 to 4 inches with locally
higher amounts possible.

* Timing... snow will develop later this morning, becoming heavy
at times through this afternoon before diminishing tonight.

* Impacts... winter driving conditions are expected with snow
covered roadways and poor visibility.

Precautionary/preparedness actions...

A Winter Weather Advisory for snow means that snow accumulations
will cause primarily travel difficulties. Be prepared for snow
covered roads. Use caution while driving.

For winter Road conditions from the Utah Department of
Transportation, visit
http://www.Udottraffic.Utah.Gov/roadweatherforecast.Aspx or dial
511.